Aérodrome de Bordeaux-Léognan-Saucats

LFCS · Gironde, Nouvelle-Aquitaine, Frankreich

METAR-Geschichte LFCS · Bordeaux Léognan Saucats Airport

Unten siehst du die METARs der letzten paar Tage. Wähle ein Jahr, um ältere METARs ab dem Jahr 2007 zu durchsuchen.

9. Dezember 2022

Uhrzeit Code Wetter Temp. Sichtweite Wolkendecke Wind METAR/SPECI
03:00
M
5 °C 10 km+ 1.300 ft 040° 040° 5 kt SPECI LFBD 090200Z AUTO 04005KT 9999 OVC013 05/04 Q1000 TEMPO 3000 -RA BKN002
03:00
M
5 °C 10 km+ 1.300 ft 040° 040° 5 kt METAR LFBD 090200Z AUTO 04005KT 9999 OVC013 05/04 Q1000 TEMPO 3000 -RA BKN002
02:30
M
5 °C 10 km+ 1.100 ft 040° 040° 7 kt METAR LFBD 090130Z AUTO 04007KT 9999 OVC011 05/04 Q0999 TEMPO 3000 -RA BKN002
02:00
M
5 °C 10 km+ 1.100 ft 040° 040° 7 kt METAR LFBD 090100Z AUTO 04007KT 9999 OVC011 05/04 Q0999 TEMPO 3000 -RA BKN002
01:30
M
5 °C 9 km 1.000 ft 050° 050° 5 kt METAR LFBD 090030Z AUTO 05005KT 9000 OVC010 05/04 Q1000 TEMPO 3000 -RA BKN002
01:00
I
5 °C 8 km 900 ft 040° 040° 7 kt METAR LFBD 090000Z AUTO 04007KT 8000 -RA OVC009 05/04 Q1000 TEMPO 3000 -RA BKN002
00:30
I
5 °C 9 km 800 ft 040° 040° 7 kt METAR LFBD 082330Z AUTO 04007KT 9000 -RADZ OVC008 05/04 Q1000 TEMPO 3000 -RA BKN010 BKN025
00:00
I
5 °C 7 km 800 ft 050° 050° 7 kt METAR LFBD 082300Z AUTO 05007KT 7000 -RA BKN008/// BKN029/// BKN039/// //////TCU 05/04 Q1000 TEMPO 3000 -RA BKN010 BKN025

8. Dezember 2022

Uhrzeit Code Wetter Temp. Sichtweite Wolkendecke Wind METAR/SPECI
23:30
I
5 °C 7 km 700 ft 040° 040° 7 kt METAR LFBD 082230Z AUTO 04007KT 7000 -RA BKN007/// BKN016/// BKN039/// //////TCU 05/05 Q1000 TEMPO 3000 -RA BKN010 BKN025
23:00
M
5 °C 7 km 5.000 ft 050° 050° 5 kt METAR LFBD 082200Z AUTO 05005KT 7000 -RA SCT007/// OVC050/// //////TCU 05/05 Q1001 TEMPO 3000 -RA BKN010 BKN025
22:30
M
5 °C 6 km 5.400 ft 050° 050° 5 kt METAR LFBD 082130Z AUTO 05005KT 6000 -RA FEW031 OVC054 05/05 Q1001 TEMPO 3000 -RA BKN010 BKN025
22:00
M
6 °C 7 km - 050° 050° 4 kt METAR LFBD 082100Z AUTO 05004KT 7000 -RA NSC 06/05 Q1001 TEMPO 3000 -RA BKN010 BKN025
21:30
V
6 °C 8 km - 040° 040° 4 kt METAR LFBD 082030Z AUTO 04004KT 8000 -RA NSC 06/04 Q1001 TEMPO 3000 -RA BKN010 BKN025
21:00
V
6 °C 10 km+ - 070° 070° 4 kt METAR LFBD 082000Z AUTO 07004KT 030V090 9999 -RA NSC 06/04 Q1001 TEMPO 3000 -RA BKN010 BKN025
20:30
V
5 °C 10 km+ - 060° 060° 6 kt METAR LFBD 081930Z AUTO 06006KT CAVOK 05/04 Q1001 TEMPO 3000 -RA BKN010 BKN025
20:00
V
5 °C 9 km - 050° 050° 9 kt METAR LFBD 081900Z AUTO 05009KT 9000 NSC 05/04 Q1001 TEMPO 3000 -RA BKN010 BKN025
19:30
M
5 °C 7 km - 050° 050° 6 kt METAR LFBD 081830Z AUTO 05006KT 7000 -RA NSC 05/04 Q1002 TEMPO 3000 -RA BKN010 BKN025
19:00
V
5 °C 8 km - 060° 060° 4 kt METAR LFBD 081800Z AUTO 06004KT 010V090 8000 -RA NSC 05/04 Q1002 TEMPO BKN010 BKN025
18:30
V
5 °C 8 km - 070° 070° 5 kt METAR LFBD 081730Z AUTO 07005KT 8000 -RA NSC 05/04 Q1002 TEMPO 3000 BKN004 BKN030
18:00
V
6 °C 10 km+ - 070° 070° 7 kt METAR LFBD 081700Z AUTO 07007KT 9999 -RA //////TCU 06/04 Q1002 TEMPO 3000 BKN004 BKN030
17:30
V
6 °C 10 km+ - 070° 070° 6 kt METAR LFBD 081630Z AUTO 07006KT 010V100 9999 -RA NSC 06/04 Q1003 TEMPO 3000 BKN004 BKN030
17:00
V
6 °C 10 km+ - 070° 070° 7 kt METAR LFBD 081600Z AUTO 07007KT 9999 -RA NSC 06/04 Q1003 TEMPO 3000 BKN004 BKN030
16:30
V
6 °C 10 km+ - 060° 060° 7 kt METAR LFBD 081530Z AUTO 06007KT 9999 -RA NSC 06/04 Q1003 BECMG 3000 -RA BKN004 BKN030
16:00
V
6 °C 10 km+ - 050° 050° 7 kt METAR LFBD 081500Z AUTO 05007KT 9999 -RA //////TCU 06/04 Q1003 BECMG 3000 -RA BKN004 BKN030
15:30
V
6 °C 10 km+ - 060° 060° 6 kt METAR LFBD 081430Z AUTO 06006KT 9999 //////TCU 06/03 Q1003 BECMG 3000 -RA BKN004 BKN030
15:00
V
6 °C 10 km+ 5.600 ft 060° 060° 6 kt METAR LFBD 081400Z AUTO 06006KT 010V080 9999 FEW046/// BKN056/// OVC074/// //////TCU 06/03 Q1003 BECMG 3000 -RA BKN004 BKN030
14:30
V
6 °C 10 km+ - 050° 050° 7 kt METAR LFBD 081330Z AUTO 05007KT CAVOK 06/03 Q1003 BECMG 3000 -RA BKN004 BKN030
14:00
V
6 °C 10 km+ - 060° 060° 6 kt METAR LFBD 081300Z AUTO 06006KT 010V080 CAVOK 06/03 Q1004 BECMG 3000 -RA BKN004 BKN030
13:30
V
6 °C 10 km+ - 060° 060° 8 kt METAR LFBD 081230Z AUTO 06008KT CAVOK 06/03 Q1004 BECMG 3000 -RA BKN004 BKN030
13:00
V
6 °C 10 km+ - 040° 040° 8 kt METAR LFBD 081200Z AUTO 04008KT 010V070 CAVOK 06/03 Q1005 BECMG 3000 -RA BKN004 BKN030
12:30
V
5 °C 10 km+ - 050° 050° 7 kt METAR LFBD 081130Z AUTO 05007KT CAVOK 05/02 Q1005 NOSIG
12:00
V
5 °C 10 km+ - 050° 050° 7 kt METAR LFBD 081100Z AUTO 05007KT CAVOK 05/02 Q1005 NOSIG
11:30
V
4 °C 10 km+ - 050° 050° 7 kt METAR LFBD 081030Z AUTO 05007KT CAVOK 04/02 Q1006 NOSIG
11:00
V
4 °C 10 km+ - 050° 050° 6 kt METAR LFBD 081000Z AUTO 05006KT CAVOK 04/01 Q1006 NOSIG
10:30
V
4 °C 10 km+ - 050° 050° 7 kt METAR LFBD 080930Z AUTO 05007KT CAVOK 04/01 Q1006 NOSIG
10:00
V
3 °C 10 km+ - 050° 050° 6 kt METAR LFBD 080900Z AUTO 05006KT CAVOK 03/01 Q1007 NOSIG
09:30
V
3 °C 10 km+ - 040° 040° 8 kt METAR LFBD 080830Z AUTO 04008KT 360V060 CAVOK 03/01 Q1007 NOSIG
09:00
V
3 °C 10 km+ 9.400 ft 030° 030° 8 kt METAR LFBD 080800Z AUTO 03008KT 9999 FEW038 BKN094 OVC200 03/01 Q1007 NOSIG
08:30
V
3 °C 10 km+ - 050° 050° 5 kt METAR LFBD 080730Z AUTO 05005KT 020V080 CAVOK 03/01 Q1007 NOSIG
08:00
V
3 °C 10 km+ 9.000 ft 050° 050° 4 kt METAR LFBD 080700Z AUTO 05004KT 020V090 9999 FEW039 OVC090 03/01 Q1007 TEMPO 1500 MIFG
07:30
V
3 °C 10 km+ - 040° 040° 5 kt METAR LFBD 080630Z AUTO 04005KT 010V080 CAVOK 03/01 Q1008 TEMPO 1500 MIFG
07:00
V
3 °C 10 km+ - 050° 050° 6 kt METAR LFBD 080600Z AUTO 05006KT CAVOK 03/01 Q1008 TEMPO 1500 MIFG
06:30
V
2 °C 10 km+ - 050° 050° 5 kt METAR LFBD 080530Z AUTO 05005KT CAVOK 02/01 Q1008 TEMPO 1500 MIFG
06:00
V
2 °C 10 km+ - 050° 050° 5 kt METAR LFBD 080500Z AUTO 05005KT CAVOK 02/01 Q1008 TEMPO 1500 MIFG
05:30
V
3 °C 10 km+ - 040° 040° 7 kt METAR LFBD 080430Z AUTO 04007KT CAVOK 03/01 Q1009 TEMPO 1500 MIFG
05:00
V
3 °C 10 km+ - 050° 050° 4 kt METAR LFBD 080400Z AUTO 05004KT CAVOK 03/01 Q1009 TEMPO 1500 MIFG
04:30
V
3 °C 10 km+ - 040° 040° 5 kt METAR LFBD 080330Z AUTO 04005KT CAVOK 03/01 Q1009 TEMPO 1500 MIFG
04:00
V
3 °C 10 km+ - 040° 040° 5 kt METAR LFBD 080300Z AUTO 04005KT CAVOK 03/01 Q1010 TEMPO 1500 MIFG
03:30
V
3 °C 10 km+ - 050° 050° 4 kt METAR LFBD 080230Z AUTO 05004KT CAVOK 03/01 Q1010 TEMPO 1500 MIFG
03:00
V
3 °C 10 km+ - 050° 050° 5 kt METAR LFBD 080200Z AUTO 05005KT CAVOK 03/01 Q1010 TEMPO 1500 MIFG
02:30
V
3 °C 10 km+ - 030° 030° 5 kt METAR LFBD 080130Z AUTO 03005KT CAVOK 03/01 Q1010 TEMPO 1500 MIFG
02:00
V
3 °C 10 km+ - 040° 040° 5 kt METAR LFBD 080100Z AUTO 04005KT CAVOK 03/01 Q1011 TEMPO 1500 MIFG
01:30
V
3 °C 10 km+ - 030° 030° 5 kt METAR LFBD 080030Z AUTO 03005KT CAVOK 03/01 Q1011 TEMPO 1500 MIFG
01:00
V
3 °C 10 km+ - 030° 030° 4 kt METAR LFBD 080000Z AUTO 03004KT CAVOK 03/01 Q1011 TEMPO 1500 MIFG
00:30
V
3 °C 10 km+ - 050° 050° 4 kt METAR LFBD 072330Z AUTO 05004KT CAVOK 03/02 Q1012 TEMPO 1500 MIFG
00:00
V
3 °C 10 km+ - 030° 030° 5 kt METAR LFBD 072300Z AUTO 03005KT CAVOK 03/01 Q1012 TEMPO 1500 MIFG

7. Dezember 2022

Uhrzeit Code Wetter Temp. Sichtweite Wolkendecke Wind METAR/SPECI
23:30
V
3 °C 10 km+ - 030° 030° 4 kt METAR LFBD 072230Z AUTO 03004KT CAVOK 03/01 Q1012 TEMPO 1500 MIFG
23:00
V
3 °C 10 km+ - 030° 030° 5 kt METAR LFBD 072200Z AUTO 03005KT CAVOK 03/01 Q1012 NOSIG
22:30
V
4 °C 10 km+ - 040° 040° 6 kt METAR LFBD 072130Z AUTO 04006KT CAVOK 04/02 Q1012 NOSIG
22:00
V
4 °C 10 km+ - 050° 050° 6 kt METAR LFBD 072100Z AUTO 05006KT CAVOK 04/02 Q1012 NOSIG
21:30
V
4 °C 10 km+ - 030° 030° 6 kt METAR LFBD 072030Z AUTO 03006KT 350V060 CAVOK 04/02 Q1013 NOSIG
21:00
V
4 °C 10 km+ - 030° 030° 6 kt METAR LFBD 072000Z AUTO 03006KT CAVOK 04/02 Q1013 NOSIG
20:30
V
4 °C 10 km+ - 030° 030° 6 kt METAR LFBD 071930Z AUTO 03006KT CAVOK 04/02 Q1013 NOSIG
20:00
V
5 °C 10 km+ - 030° 030° 6 kt METAR LFBD 071900Z AUTO 03006KT CAVOK 05/02 Q1013 NOSIG
19:30
V
5 °C 10 km+ - 030° 030° 6 kt METAR LFBD 071830Z AUTO 03006KT CAVOK 05/02 Q1014 NOSIG
19:00
V
5 °C 10 km+ - 030° 030° 6 kt METAR LFBD 071800Z AUTO 03006KT CAVOK 05/02 Q1014 NOSIG
18:30
V
5 °C 10 km+ - 020° 020° 5 kt METAR LFBD 071730Z AUTO 02005KT CAVOK 05/03 Q1014 NOSIG
18:00
V
6 °C 10 km+ - 030° 030° 5 kt METAR LFBD 071700Z AUTO 03005KT CAVOK 06/02 Q1014 NOSIG
17:30
V
6 °C 10 km+ - 030° 030° 7 kt METAR LFBD 071630Z AUTO 03007KT CAVOK 06/02 Q1014 NOSIG
17:00
V
6 °C 10 km+ - 030° 030° 5 kt METAR LFBD 071600Z AUTO 03005KT CAVOK 06/03 Q1014 NOSIG
16:30
V
7 °C 10 km+ - 040° 040° 4 kt METAR LFBD 071530Z AUTO 04004KT CAVOK 07/02 Q1014 NOSIG
16:00
V
7 °C 10 km+ - 050° 050° 3 kt METAR LFBD 071500Z AUTO 05003KT 010V080 CAVOK 07/02 Q1014 NOSIG
15:30
V
7 °C 10 km+ - 040° 040° 5 kt METAR LFBD 071430Z AUTO 04005KT CAVOK 07/02 Q1014 NOSIG
15:00
V
7 °C 10 km+ - 040° 040° 7 kt METAR LFBD 071400Z AUTO 04007KT CAVOK 07/02 Q1014 NOSIG
14:30
V
7 °C 10 km+ - 050° 050° 5 kt METAR LFBD 071330Z AUTO 05005KT 010V090 CAVOK 07/02 Q1015 NOSIG
14:00
V
7 °C 10 km+ - 040° 040° 6 kt METAR LFBD 071300Z AUTO 04006KT 010V070 CAVOK 07/02 Q1015 NOSIG
13:30
V
6 °C 10 km+ - 050° 050° 6 kt METAR LFBD 071230Z AUTO 05006KT CAVOK 06/02 Q1016 NOSIG
13:00
V
6 °C 10 km+ - 040° 040° 8 kt METAR LFBD 071200Z AUTO 04008KT 010V090 CAVOK 06/02 Q1016 NOSIG
12:30
V
5 °C 10 km+ - 050° 050° 7 kt METAR LFBD 071130Z AUTO 05007KT CAVOK 05/02 Q1016 NOSIG
12:00
V
4 °C 10 km+ 7.400 ft 030° 030° 8 kt METAR LFBD 071100Z AUTO 03008KT 9999 FEW010 OVC074 04/01 Q1017 NOSIG
11:30
I
3 °C 10 km+ 900 ft 050° 050° 9 kt METAR LFBD 071030Z AUTO 05009KT 020V080 9999 BKN009 OVC074 03/01 Q1017 BECMG NSC
11:00
I
3 °C 10 km+ 700 ft 050° 050° 7 kt METAR LFBD 071000Z AUTO 05007KT 9999 BKN007 OVC074 03/01 Q1017 BECMG NSC
10:30
I
2 °C 7 km 500 ft 050° 050° 7 kt METAR LFBD 070930Z AUTO 05007KT 7000 OVC005 02/01 Q1017 BECMG NSC
10:00
I
2 °C 6 km 500 ft 050° 050° 8 kt METAR LFBD 070900Z AUTO 05008KT 6000 OVC005 02/01 Q1017 BECMG BKN045
09:30
L
2 °C 4,3 km 400 ft 040° 040° 8 kt METAR LFBD 070830Z AUTO 04008KT 010V080 4300 BR OVC004 02/01 Q1017 BECMG 9999 NSW BKN045
09:00
L
2 °C 5 km 400 ft 060° 060° 6 kt METAR LFBD 070800Z AUTO 06006KT 5000 BR OVC004 02/01 Q1017 TEMPO 0500 FG VV///
08:30
L
2 °C 4,6 km 300 ft 050° 050° 6 kt METAR LFBD 070730Z AUTO 05006KT 4600 BR OVC003 02/01 Q1017 TEMPO VV/// BECMG 9999 NSW
08:00
L
2 °C 1,1 km - 050° 050° 6 kt METAR LFBD 070700Z AUTO 05006KT 4900 1100 R23/1400D R05/P2300 R29/P2300 BR VV/// 02/01 Q1017 TEMPO 0500 FG
07:30
L
2 °C 1,4 km 200 ft 030° 030° 6 kt METAR LFBD 070630Z AUTO 03006KT 3900 1400 R23/2000D R05/P2300 R29/P2300 BR OVC002 02/01 Q1017 TEMPO 0500 FG VV///
07:00
L
1 °C 2,3 km - 070° 070° 5 kt METAR LFBD 070600Z AUTO 07005KT 360V120 2300 BR VV/// 01/01 Q1016 TEMPO 0500 FG
06:30
L
1 °C 550 m - 070° 070° 6 kt METAR LFBD 070530Z AUTO 07006KT 010V100 0700 0550 R23/0650N R05/0900D R29/1100U FG VV/// 01/01 Q1017 TEMPO 0500 FG
06:00
L
1 °C 350 m - 030° 030° 8 kt METAR LFBD 070500Z AUTO 03008KT 0550 0350 R23/0400N R05/0650N R29/1000U FG VV/// 01/01 Q1017 NOSIG
05:30
L
1 °C 400 m - 040° 040° 6 kt METAR LFBD 070430Z AUTO 04006KT 010V090 0550 0400 R23/0450U R05/0600U R29/1000D FG VV/// 01/01 Q1017 NOSIG
05:00
L
1 °C 350 m - 040° 040° 6 kt METAR LFBD 070400Z AUTO 04006KT 010V080 0600 0350 R23/0450D R05/0650U R29/0800U FG VV/// 01/01 Q1017 NOSIG
04:30
L
1 °C 500 m - 050° 050° 8 kt METAR LFBD 070330Z AUTO 05008KT 0800 0500 R23/0500D R05/1100U R29/0700D FG VV/// 01/01 Q1017 TEMPO 0500 FG
04:00
L
2 °C 650 m - 030° 030° 8 kt METAR LFBD 070300Z AUTO 03008KT 1100 0650 R23/0650D R05/1200D R29/P2300 -DZ BCFG VV/// 02/01 Q1017 TEMPO 0500 FG
03:30
L
2 °C 1 km 200 ft 040° 040° 7 kt METAR LFBD 070230Z AUTO 04007KT 1700 1000 R23/1700U R05/1400D R29/P2300 BR OVC002 02/02 Q1017 NOSIG
03:00
L
2 °C 5 km 300 ft 040° 040° 8 kt METAR LFBD 070200Z AUTO 04008KT 5000 BR OVC003 02/01 Q1017 TEMPO 1500 MIFG
02:30
V
3 °C 8 km 7.600 ft 040° 040° 8 kt METAR LFBD 070130Z AUTO 04008KT 8000 SCT005 OVC076 03/01 Q1017 TEMPO 1500 MIFG BKN004
02:00
V
4 °C 10 km+ - 030° 030° 7 kt METAR LFBD 070100Z AUTO 03007KT CAVOK 04/02 Q1017 TEMPO 1500 MIFG BKN004
01:30
V
4 °C 10 km+ - 040° 040° 8 kt METAR LFBD 070030Z AUTO 04008KT CAVOK 04/02 Q1017 TEMPO 1500 MIFG BKN004
01:00
V
4 °C 10 km+ - 040° 040° 6 kt METAR LFBD 070000Z AUTO 04006KT CAVOK 04/02 Q1017 TEMPO 1500 MIFG BKN004
00:30
V
5 °C 10 km+ - 030° 030° 6 kt METAR LFBD 062330Z AUTO 03006KT CAVOK 05/03 Q1017 TEMPO 1500 MIFG BKN004
00:00
V
5 °C 10 km+ - 040° 040° 6 kt METAR LFBD 062300Z AUTO 04006KT CAVOK 05/03 Q1017 TEMPO 1500 MIFG BKN004

6. Dezember 2022

Uhrzeit Code Wetter Temp. Sichtweite Wolkendecke Wind METAR/SPECI
23:30
V
5 °C 10 km+ - 030° 030° 6 kt METAR LFBD 062230Z AUTO 03006KT CAVOK 05/03 Q1017 TEMPO 1500 MIFG BKN004
23:00
V
6 °C 10 km+ - 040° 040° 5 kt METAR LFBD 062200Z AUTO 04005KT CAVOK 06/03 Q1017 NOSIG
22:30
V
6 °C 10 km+ - 030° 030° 6 kt METAR LFBD 062130Z AUTO 03006KT CAVOK 06/03 Q1017 NOSIG
22:00
V
6 °C 10 km+ - 040° 040° 8 kt METAR LFBD 062100Z AUTO 04008KT CAVOK 06/03 Q1017 NOSIG
21:30
V
6 °C 10 km+ - 040° 040° 7 kt METAR LFBD 062030Z AUTO 04007KT CAVOK 06/03 Q1017 NOSIG
21:00
V
6 °C 10 km+ - 030° 030° 8 kt METAR LFBD 062000Z AUTO 03008KT CAVOK 06/03 Q1017 NOSIG
20:30
V
7 °C 10 km+ - 040° 040° 8 kt METAR LFBD 061930Z AUTO 04008KT CAVOK 07/03 Q1017 NOSIG
20:00
V
7 °C 10 km+ - 030° 030° 7 kt METAR LFBD 061900Z AUTO 03007KT CAVOK 07/03 Q1017 NOSIG
19:30
V
8 °C 10 km+ - 030° 030° 8 kt METAR LFBD 061830Z AUTO 03008KT CAVOK 08/03 Q1016 NOSIG
19:00
V
8 °C 10 km+ - 030° 030° 8 kt METAR LFBD 061800Z AUTO 03008KT CAVOK 08/04 Q1016 NOSIG
18:30
V
9 °C 10 km+ - 030° 030° 8 kt METAR LFBD 061730Z AUTO 03008KT CAVOK 09/03 Q1016 NOSIG
18:00
V
9 °C 10 km+ - 020° 020° 8 kt METAR LFBD 061700Z AUTO 02008KT CAVOK 09/04 Q1016 NOSIG
17:30
V
10 °C 10 km+ 7.800 ft 050° 050° 5 kt METAR LFBD 061630Z AUTO 05005KT 010V080 9999 FEW046 OVC078 10/04 Q1016 NOSIG
17:00
V
10 °C 10 km+ 5.600 ft 050° 050° 5 kt METAR LFBD 061600Z AUTO 05005KT 9999 SCT047 BKN056 BKN066 10/03 Q1016 NOSIG
16:30
V
11 °C 10 km+ 4.700 ft 050° 050° 4 kt METAR LFBD 061530Z AUTO 05004KT 9999 BKN047 BKN056 OVC074 11/04 Q1016 NOSIG
16:00
V
11 °C 10 km+ 5.600 ft 070° 070° 4 kt METAR LFBD 061500Z AUTO 07004KT 9999 SCT049 OVC056 11/04 Q1016 NOSIG
15:30
V
11 °C 10 km+ - 060° 060° 5 kt METAR LFBD 061430Z AUTO 06005KT 020V080 CAVOK 11/04 Q1016 NOSIG
15:00
V
11 °C 10 km+ - 050° 050° 6 kt METAR LFBD 061400Z AUTO 05006KT CAVOK 11/04 Q1016 NOSIG
14:30
V
11 °C 10 km+ - 050° 050° 5 kt METAR LFBD 061330Z AUTO 05005KT CAVOK 11/05 Q1016 NOSIG
14:00
V
11 °C 10 km+ - 080° 080° 6 kt METAR LFBD 061300Z AUTO 08006KT 330V130 CAVOK 11/04 Q1016 NOSIG
13:30
V
11 °C 10 km+ - 070° 070° 6 kt METAR LFBD 061230Z AUTO 07006KT 010V090 CAVOK 11/03 Q1016 NOSIG
13:00
V
10 °C 10 km+ - 070° 070° 7 kt METAR LFBD 061200Z AUTO 07007KT 020V090 CAVOK 10/03 Q1016 NOSIG
12:30
V
11 °C 10 km+ - 060° 060° 6 kt METAR LFBD 061130Z AUTO 06006KT CAVOK 11/03 Q1016 NOSIG
12:00
V
11 °C 10 km+ - 090° 090° 8 kt METAR LFBD 061100Z AUTO 09008KT CAVOK 11/03 Q1016 NOSIG
11:30
V
10 °C 10 km+ - 100° 100° 6 kt METAR LFBD 061030Z AUTO 10006KT CAVOK 10/03 Q1017 NOSIG
11:00
V
9 °C 10 km+ - 100° 100° 7 kt METAR LFBD 061000Z AUTO 10007KT CAVOK 09/03 Q1016 NOSIG

Wir und Dritte verfolgen dein Internetverhalten auf unserer Website mit Cookies. Wenn du fortfährst, gehen wir davon aus, dass du mit unserer Cookie-Richtlinie einverstanden bist.